Aeroporto :
LOGIN :

Iscrizione | Disclaimer

   EN    FR    IT 

 










Sommario :    VFR   VFR Marginale   IFR   IFR Intensivo   IFR Molto Intensivo
Visibilità : 
Base nubi : 
>= 8 km
>= 3000ft
5 / 8 km
1000 / 3000 ft
1500m / 5 km
500 / 1000 ft
800 / 1500m
200 / 500 ft
< 800m
< 200 ft
Simboli :   Temporali  Nebbia  Neve Forte  Precipitazioni Forti  Vento > 20 kt
SIGMETs :   Varie  Temporali  Ghiacco  Turbolenza  Onda orograficha  Ceneri Vulcaniche






- Altitudine del aeroporto : 194 ft


EBCV - Chièvres

ULTIMO METAR :
  • 170555Z AUTO 18003KT 0100 FG OVC001/// 12/12 Q1017 RED

METARs OBSOLETI :
  • 170525Z AUTO VRB02KT 0050 FG OVC001/// 12/12 Q1017 RED
  • 170503Z AUTO VRB02KT 1400 BR BKN001/// 11/11 Q1017 RED
  • 170448Z AUTO 20003KT 0750 FG NCD 11/11 Q1016 RED
  • 170446Z AUTO 20003KT 0800 FG NCD 11/11 Q1016 AMB
  • 170434Z AUTO 21004KT 0750 FG NCD 11/11 Q1016 RED
  • 170355Z AUTO 18004KT 1300 BR NCD 12/11 Q1016 AMB
  • 170325Z AUTO 19004KT 1700 BR NCD 12/11 Q1017 YLO

TAF TAF EBCV
Valido dal 16 a 19 ore il 17 a 07 ore UTC


161541Z 1619/1707 32005KT 9999 SCT040
BECMG 1319/1321 18005KT
BECMG 1400/1402 3500 BR BKN003
TEMPO 1402/1407 VRB03KT 0200 FG VV001 BY EBWM



MetMap, La meteo Aeronautica in un colpo d'occhio ! - Copyright ORBIFLY Dicembre 2007 - Disclaimer

ORBIFLY MET'MAP TEAM :

Programmazione e sviluppo : Alexandra Zaïnal
Concezione : Baudouin d'Aumeries
Aiuto per la programmazione : Marc-Olivier Méhu
Supporto tecnico e logistico : Manuel Goepfert
Aiuto per la traduzione : Arnaldo La Scala

Contatto : metmap@orbifly.com




FONTI E CREDITI :

   NOAA